ESSB/BMA METAR and TAF weather

Enter ICAO airport designator
Station Type Date Time Source
ESSB METAR 2021/05/14 06:50 UTC NOAA

ESSB 140650Z VRB01KT 9999 -SHRA BKN059CB 12/09 Q1005


Station Type Date Time Source
ESSB Decoded METAR 2021/05/14 06:50 UTC NOAA

Stockholm / Bromma, Sweden (ESSB) 59-21N 017-57E 14M
May 14, 2021 - 02:50 AM EDT / 2021.05.14 0650 UTC
Wind: Variable at 1 MPH (1 KT):0
Visibility: greater than 7 mile(s):0
Sky conditions: mostly cloudy
Weather: light rain showers; Cumulonimbus clouds observed
Temperature: 53 F (12 C)
Dew Point: 48 F (9 C)
Relative Humidity: 81%
Pressure (altimeter): 29.68 in. Hg (1005 hPa)
ob: ESSB 140650Z VRB01KT 9999 -SHRA BKN059CB 12/09 Q1005
cycle: 7

Station Type Date Time Source
ESSB TAF 2017/03/27 06:35 UTC NOAA

TAF ESSB 270530Z 2706/2724 27008KT CAVOK
BECMG 2710/2713 29015G25KT

Example: see airport list